Time;durP1;ratioP1;P1;durP2;ratioP2;P2;SDS_P1;SDS_P2;PMS_P1;PMS_P2;Temp;Humidity;BMP_temperature;BMP_pressure;BME280_temperature;BME280_humidity;BME280_pressure;Samples;Min_cycle;Max_cycle;Signal;HPM_P1;HPM_P2
2022/06/08 00:02:03;;;;;;;8.70;5.45;;;;;;;;;;5038001;28;20123;-68
2022/06/08 00:04:29;;;;;;;11.88;5.00;;;;;;;19.74;nan;99807.94;5036959;28;20052;-69
2022/06/08 00:06:54;;;;;;;12.02;5.38;;;;;;;;;;5036188;28;20199;-67
2022/06/08 00:09:20;;;;;;;10.00;5.33;;;;;;;19.71;nan;99934.09;5022830;28;20487;-68
2022/06/08 00:11:46;;;;;;;7.15;5.90;;;;;;;;;;5046523;28;20289;-68
2022/06/08 00:14:13;;;;;;;7.20;5.30;;;;;;;19.66;nan;99867.38;5041656;28;20030;-68
2022/06/08 00:16:39;;;;;;;9.73;5.10;;;;;;;19.59;nan;99834.16;5039709;28;20132;-68
2022/06/08 00:19:04;;;;;;;9.80;5.57;;;;;;;19.59;nan;99824.25;5023234;28;20219;-67
2022/06/08 00:21:30;;;;;;;8.73;5.32;;;;;;;19.52;nan;99867.38;5033507;28;20041;-66
2022/06/08 00:23:55;;;;;;;10.73;5.47;;;;;;;;;;5042367;28;20029;-69
2022/06/08 00:26:24;;;;;;;8.90;5.93;;;;;;;19.51;nan;99865.81;5023296;28;20041;-67
2022/06/08 00:28:50;;;;;;;6.60;5.47;;;;;;;19.46;nan;99787.66;5041088;28;20029;-67
2022/06/08 00:31:16;;;;;;;7.45;5.40;;;;;;;19.40;nan;99863.63;5044402;28;20060;-68
2022/06/08 00:33:41;;;;;;;8.02;5.45;;;;;;;19.36;nan;99894.69;5047560;28;20506;-67
2022/06/08 00:36:07;;;;;;;6.90;5.45;;;;;;;19.33;nan;99843.44;5039452;28;20036;-68
2022/06/08 00:38:32;;;;;;;8.60;5.40;;;;;;;;;;5049968;28;20040;-69
2022/06/08 00:41:24;;;;;;;8.73;5.75;;;;;;;19.27;nan;99857.19;5037363;28;20045;-68
2022/06/08 00:43:50;;;;;;;6.57;5.70;;;;;;;19.18;nan;99843.75;5030306;28;20056;-67
2022/06/08 00:46:16;;;;;;;6.82;5.93;;;;;;;19.17;nan;99841.38;5042358;28;20106;-68
2022/06/08 00:48:50;;;;;;;7.35;5.57;;;;;;;19.11;nan;99878.84;5051511;28;20042;-69
2022/06/08 00:51:16;;;;;;;6.78;5.15;;;;;;;19.11;nan;99843.34;5043289;28;20120;-68
2022/06/08 00:53:50;;;;;;;7.97;5.70;;;;;;;19.10;nan;99845.22;5051228;28;20630;-67
2022/06/08 00:56:22;;;;;;;9.48;5.68;;;;;;;19.08;nan;99843.91;5028620;28;20045;-67
2022/06/08 00:58:48;;;;;;;10.68;6.10;;;;;;;19.08;nan;99838.59;5046307;28;20052;-68
2022/06/08 01:01:13;;;;;;;12.07;5.55;;;;;;;18.99;nan;99827.03;5021949;28;20424;-67
2022/06/08 01:03:39;;;;;;;11.30;6.07;;;;;;;19.03;nan;99876.81;5047281;28;20036;-70
2022/06/08 01:06:13;;;;;;;11.55;5.82;;;;;;;18.99;nan;99811.03;5044044;28;20029;-68
2022/06/08 01:08:46;;;;;;;9.30;6.00;;;;;;;18.99;nan;99833.16;5041291;28;20087;-67
2022/06/08 01:11:22;;;;;;;9.75;5.97;;;;;;;18.96;nan;99871.06;5045142;28;20045;-67
2022/06/08 01:13:48;;;;;;;8.27;5.70;;;;;;;18.91;nan;99831.97;5020174;28;20395;-68
2022/06/08 01:16:14;;;;;;;10.07;5.50;;;;;;;18.89;nan;99828.78;5038901;28;20045;-67
2022/06/08 01:18:40;;;;;;;8.55;6.38;;;;;;;18.85;nan;99867.81;5041926;28;20028;-68
2022/06/08 01:21:21;;;;;;;8.95;6.18;;;;;;;18.84;nan;99842.22;5048010;28;20029;-68
2022/06/08 01:23:56;;;;;;;14.68;6.35;;;;;;;18.80;nan;99878.56;5054155;28;20037;-67
2022/06/08 01:26:22;;;;;;;11.40;6.70;;;;;;;;;;5047581;28;20391;-68
2022/06/08 01:29:09;;;;;;;10.07;6.33;;;;;;;18.75;nan;99769.28;5050768;28;20040;-67
2022/06/08 01:31:58;;;;;;;8.73;6.40;;;;;;;18.71;nan;99784.25;5047712;28;20033;-67
2022/06/08 01:34:31;;;;;;;8.57;6.57;;;;;;;18.76;nan;99810.06;5051719;28;20128;-67
2022/06/08 01:37:03;;;;;;;14.85;8.15;;;;;;;18.74;nan;99812.22;5046103;28;20077;-66
2022/06/08 01:39:31;;;;;;;10.30;6.57;;;;;;;18.71;nan;99829.59;5053793;28;20041;-66
2022/06/08 01:42:33;;;;;;;9.55;6.85;;;;;;;18.69;nan;99824.56;5045285;28;20037;-67
2022/06/08 01:45:29;;;;;;;11.50;6.50;;;;;;;18.67;nan;99804.59;5056420;28;20495;-67
2022/06/08 01:47:57;;;;;;;9.77;7.00;;;;;;;18.62;nan;99818.81;5046503;28;20040;-67
2022/06/08 01:50:28;;;;;;;10.57;6.78;;;;;;;18.58;nan;99825.03;5053906;28;20495;-68
2022/06/08 01:53:27;;;;;;;8.70;6.55;;;;;;;18.54;nan;99870.16;5027450;28;20426;-67
2022/06/08 01:55:57;;;;;;;;;;;;;;;18.52;nan;99823.53;5043241;28;20058;-68
2022/06/08 01:58:34;;;;;;;8.63;7.30;;;;;;;18.52;nan;99828.88;5052364;28;19917;-68
2022/06/08 02:01:13;;;;;;;14.13;7.43;;;;;;;;;;5040464;28;20057;-67
2022/06/08 02:04:02;;;;;;;;;;;;;;;18.45;nan;99835.34;5046061;28;20127;-67
2022/06/08 02:06:44;;;;;;;12.05;7.38;;;;;;;18.31;nan;99769.75;5035203;28;20310;-67
2022/06/08 02:09:17;;;;;;;11.77;8.43;;;;;;;18.37;nan;99832.56;5052892;28;20112;-67
2022/06/08 02:12:05;;;;;;;11.50;8.18;;;;;;;18.28;nan;99827.09;5024539;28;20042;-66
2022/06/08 02:14:50;;;;;;;16.30;8.35;;;;;;;18.23;nan;99800.53;5026020;28;20041;-68
2022/06/08 02:17:34;;;;;;;12.15;8.82;;;;;;;18.17;nan;99815.81;5034884;28;20040;-68
2022/06/08 02:20:05;;;;;;;12.07;8.57;;;;;;;;;;5032450;28;20029;-67
2022/06/08 02:22:49;;;;;;;12.32;8.18;;;;;;;18.05;nan;99818.91;5029573;28;20041;-67
2022/06/08 02:25:21;;;;;;;12.90;8.43;;;;;;;18.03;nan;99802.41;5014329;28;20052;-67
2022/06/08 02:27:54;;;;;;;10.32;8.57;;;;;;;17.97;nan;99819.53;5032244;28;20038;-68
2022/06/08 02:30:24;;;;;;;11.10;8.18;;;;;;;17.91;nan;99815.38;5027237;28;20030;-68
2022/06/08 02:35:44;;;;;;;11.98;8.50;;;;;;;17.78;nan;99870.09;5019632;28;20026;-69
2022/06/08 02:38:15;;;;;;;17.15;8.95;;;;;;;17.71;nan;99746.38;5017081;28;20034;-67
2022/06/08 02:40:45;;;;;;;12.55;9.48;;;;;;;17.67;nan;99798.63;5026979;28;20116;-67
2022/06/08 02:43:19;;;;;;;13.70;9.20;;;;;;;;;;5015548;28;20057;-67
2022/06/08 02:45:44;;;;;;;14.70;9.45;;;;;;;;;;5027206;28;20033;-67
2022/06/08 02:48:13;;;;;;;12.02;8.88;;;;;;;17.48;nan;99795.94;5033540;28;20120;-67
2022/06/08 02:50:52;;;;;;;13.25;9.43;;;;;;;;;;5028319;28;20130;-69
2022/06/08 02:53:18;;;;;;;15.13;9.48;;;;;;;17.57;nan;99834.16;5030525;28;20037;-69
2022/06/08 02:55:51;;;;;;;16.70;10.27;;;;;;;17.50;nan;99847.03;5029738;28;20038;-69
2022/06/08 02:58:22;;;;;;;12.25;9.27;;;;;;;;;;5033356;28;20038;-69
2022/06/08 03:01:01;;;;;;;17.00;9.85;;;;;;;;;;5028358;28;20476;-69
2022/06/08 03:03:39;;;;;;;15.85;9.02;;;;;;;;;;5024399;28;20052;-69
2022/06/08 03:06:05;;;;;;;16.63;10.07;;;;;;;;;;5025648;28;20038;-66
2022/06/08 03:08:37;;;;;;;17.27;9.38;;;;;;;17.46;nan;99877.97;5031287;28;20638;-67
2022/06/08 03:11:06;;;;;;;13.15;9.52;;;;;;;17.46;nan;99828.19;5034725;28;20037;-67
2022/06/08 03:13:43;;;;;;;14.10;9.38;;;;;;;;;;5030834;28;20064;-67
2022/06/08 03:16:22;;;;;;;12.50;9.07;;;;;;;;;;5040825;28;20037;-66
2022/06/08 03:18:47;;;;;;;14.13;9.18;;;;;;;;;;5033824;28;20037;-68
2022/06/08 03:21:13;;;;;;;11.30;9.20;;;;;;;;;;5050112;28;20115;-67
2022/06/08 03:23:39;;;;;;;13.02;8.75;;;;;;;;;;5050610;28;20304;-67
2022/06/08 03:26:04;;;;;;;12.93;8.87;;;;;;;;;;5050860;28;20044;-70
2022/06/08 03:28:30;;;;;;;16.70;9.83;;;;;;;;;;5053107;28;20270;-69
2022/06/08 03:30:55;;;;;;;17.45;9.52;;;;;;;;;;5036600;28;20266;-67
2022/06/08 03:33:21;;;;;;;12.90;9.48;;;;;;;;;;5031335;28;20128;-67
2022/06/08 03:35:46;;;;;;;13.63;9.00;;;;;;;17.73;nan;99840.88;5034988;28;20113;-68
2022/06/08 03:38:11;;;;;;;18.17;9.48;;;;;;;;;;5034447;28;20037;-67
2022/06/08 03:40:37;;;;;;;12.50;8.80;;;;;;;;;;5029349;28;20030;-66
2022/06/08 03:43:02;;;;;;;13.33;8.47;;;;;;;17.87;nan;99851.66;5047743;28;20127;-68
2022/06/08 03:45:36;;;;;;;20.52;9.00;;;;;;;17.92;nan;99829.50;5027263;28;20786;-68
2022/06/08 03:48:01;;;;;;;15.05;8.25;;;;;;;17.99;nan;99913.28;5043360;28;21337;-68
2022/06/08 03:50:29;;;;;;;12.77;7.97;;;;;;;;;;5052758;28;20120;-67
2022/06/08 03:52:56;;;;;;;12.23;8.02;;;;;;;;;;5038823;28;20498;-69
2022/06/08 03:55:22;;;;;;;10.20;8.05;;;;;;;;;;5034123;28;20494;-67
2022/06/08 03:57:50;;;;;;;12.85;8.43;;;;;;;18.13;nan;99861.97;5033459;28;20224;-68
2022/06/08 04:00:18;;;;;;;12.68;8.15;;;;;;;18.06;nan;99908.41;5031282;28;20327;-68
2022/06/08 04:02:45;;;;;;;13.45;8.25;;;;;;;;;;5037585;28;20083;-66
2022/06/08 04:05:10;;;;;;;15.10;8.38;;;;;;;18.12;nan;99813.19;5041032;28;20028;-68
2022/06/08 04:07:36;;;;;;;12.50;7.13;;;;;;;18.09;nan;99868.94;5041173;28;20394;-67
2022/06/08 04:10:02;;;;;;;10.43;8.07;;;;;;;18.07;nan;99838.03;5053876;28;20031;-68
2022/06/08 04:12:28;;;;;;;13.20;7.88;;;;;;;;;;5022681;28;20402;-67
2022/06/08 04:14:53;;;;;;;10.57;7.80;;;;;;;18.10;nan;99833.22;5037805;28;20041;-68
2022/06/08 04:17:19;;;;;;;8.80;7.13;;;;;;;17.98;nan;99823.81;5042348;28;20282;-69
2022/06/08 04:19:47;;;;;;;12.45;7.40;;;;;;;18.11;nan;99811.63;5049487;28;20032;-69
2022/06/08 04:22:15;;;;;;;10.95;7.93;;;;;;;18.12;nan;99809.75;5046597;28;20116;-69
2022/06/08 04:24:40;;;;;;;10.10;7.55;;;;;;;18.13;nan;99833.44;5022935;28;20091;-68
2022/06/08 04:27:06;;;;;;;12.00;7.30;;;;;;;18.20;nan;99846.41;5021700;28;20036;-68
2022/06/08 04:29:32;;;;;;;11.90;7.82;;;;;;;18.28;nan;99837.75;5043468;28;20041;-68
2022/06/08 04:31:57;;;;;;;11.02;6.72;;;;;;;;;;5036199;28;20039;-68
2022/06/08 04:34:23;;;;;;;14.30;6.35;;;;;;;18.42;nan;99896.47;5037427;28;20082;-68
2022/06/08 04:36:48;;;;;;;11.57;6.30;;;;;;;18.54;nan;99821.38;5034331;28;20098;-68
2022/06/08 04:39:16;;;;;;;11.23;6.60;;;;;;;18.64;nan;99815.88;5042411;28;23846;-70
2022/06/08 04:41:41;;;;;;;17.58;7.20;;;;;;;;;;5047198;28;20037;-68
2022/06/08 04:44:07;;;;;;;10.48;6.50;;;;;;;18.80;nan;99873.22;5037080;28;20196;-69
2022/06/08 04:46:32;;;;;;;8.82;6.55;;;;;;;18.95;nan;99826.03;5029076;28;20466;-70
2022/06/08 04:48:58;;;;;;;10.35;6.40;;;;;;;19.07;nan;99819.13;5042750;28;20115;-70
2022/06/08 04:51:24;;;;;;;10.48;5.65;;;;;;;19.19;nan;99829.31;5041587;28;20116;-70
2022/06/08 04:53:50;;;;;;;11.68;5.53;;;;;;;19.32;nan;99830.38;5045013;28;20033;-69
2022/06/08 04:56:16;;;;;;;13.43;5.75;;;;;;;19.45;nan;99823.47;5052211;28;20084;-69
2022/06/08 04:58:42;;;;;;;8.82;5.43;;;;;;;19.54;nan;99824.38;5026714;28;20028;-71
2022/06/08 05:01:08;;;;;;;11.65;5.82;;;;;;;19.69;nan;99829.41;5025634;28;20365;-70
2022/06/08 05:03:33;;;;;;;11.00;5.72;;;;;;;;;;5047407;28;20043;-70
2022/06/08 05:06:00;;;;;;;15.85;5.45;;;;;;;20.01;nan;99824.97;5043342;28;20472;-69
2022/06/08 05:08:26;;;;;;;11.68;6.03;;;;;;;20.13;nan;99825.22;5048412;28;20502;-70
2022/06/08 05:10:53;;;;;;;6.50;5.35;;;;;;;20.33;nan;99839.25;5046607;28;20048;-70
2022/06/08 05:13:21;;;;;;;8.50;5.43;;;;;;;20.44;nan;99840.56;5047182;28;20029;-71
2022/06/08 05:15:48;;;;;;;12.15;5.22;;;;;;;20.49;nan;99808.34;5047251;28;20041;-71
2022/06/08 05:18:16;;;;;;;7.07;4.75;;;;;;;20.65;nan;99888.25;5031329;28;20112;-71
2022/06/08 05:20:43;;;;;;;8.55;4.50;;;;;;;20.72;nan;99813.72;5051170;28;20052;-71
2022/06/08 05:23:16;;;;;;;19.38;5.72;;;;;;;20.83;nan;99796.28;5020167;28;20498;-70
2022/06/08 05:25:41;;;;;;;15.05;4.80;;;;;;;;;;5033787;28;20037;-71
2022/06/08 05:28:08;;;;;;;10.73;5.13;;;;;;;21.04;nan;99813.38;5034610;28;20036;-70
2022/06/08 05:30:34;;;;;;;10.20;4.53;;;;;;;21.18;nan;99880.19;5042715;28;20061;-73
2022/06/08 05:33:01;;;;;;;11.05;4.80;;;;;;;21.27;nan;99884.81;5047013;28;20057;-72
2022/06/08 05:35:27;;;;;;;11.45;4.32;;;;;;;21.33;nan;99884.34;5041869;28;20037;-72
2022/06/08 05:37:53;;;;;;;5.95;4.72;;;;;;;21.35;nan;99876.81;5045550;28;20040;-72
2022/06/08 05:40:20;;;;;;;8.75;4.95;;;;;;;21.49;nan;99890.13;5051181;28;20060;-72
2022/06/08 05:42:45;;;;;;;10.38;4.90;;;;;;;21.51;nan;99879.88;5053666;28;20120;-72
2022/06/08 05:45:18;;;;;;;8.85;4.63;;;;;;;21.53;nan;99876.91;5043960;28;20444;-71
2022/06/08 05:47:44;;;;;;;8.57;4.85;;;;;;;21.59;nan;99870.28;5052943;28;20055;-69
2022/06/08 05:50:10;;;;;;;10.65;4.82;;;;;;;21.66;nan;99876.00;5041687;28;20033;-72
2022/06/08 05:52:35;;;;;;;8.13;4.82;;;;;;;21.67;nan;99877.59;5035234;28;20033;-72
2022/06/08 05:55:01;;;;;;;9.77;5.03;;;;;;;21.76;nan;99881.03;5028808;28;20025;-72
2022/06/08 05:57:26;;;;;;;10.48;4.88;;;;;;;21.82;nan;99890.53;5041795;28;20044;-75
2022/06/08 05:59:52;;;;;;;11.68;5.35;;;;;;;21.91;nan;99889.75;5045091;28;20116;-74
2022/06/08 06:02:17;;;;;;;14.75;5.00;;;;;;;21.96;nan;99887.72;5044552;28;20029;-74
2022/06/08 06:04:43;;;;;;;14.77;4.72;;;;;;;22.14;nan;99891.19;5021566;28;20026;-74
2022/06/08 06:07:09;;;;;;;6.03;4.55;;;;;;;22.21;nan;99902.28;5035204;28;20029;-74
2022/06/08 06:09:35;;;;;;;10.88;4.80;;;;;;;22.06;nan;99879.38;5024908;28;20964;-74
2022/06/08 06:12:00;;;;;;;5.70;4.68;;;;;;;22.26;nan;99895.97;5036212;28;20041;-74
2022/06/08 06:14:26;;;;;;;5.35;4.65;;;;;;;22.27;nan;99901.03;5033646;28;20124;-74
2022/06/08 06:16:51;;;;;;;13.15;5.18;;;;;;;22.39;nan;99915.72;5037574;28;20036;-73
2022/06/08 06:19:17;;;;;;;7.32;4.63;;;;;;;22.48;nan;99911.09;5035331;28;20418;-74
2022/06/08 06:21:43;;;;;;;7.03;4.80;;;;;;;22.51;nan;99907.81;5022087;28;20039;-74
2022/06/08 06:24:08;;;;;;;7.75;4.90;;;;;;;22.55;nan;99914.09;5020202;28;20029;-71
2022/06/08 06:26:34;;;;;;;5.40;4.57;;;;;;;22.63;nan;99915.22;5034946;28;20035;-72
2022/06/08 06:28:59;;;;;;;12.93;4.72;;;;;;;;;;5035051;28;20025;-71
2022/06/08 06:31:42;;;;;;;7.03;4.50;;;;;;;22.71;nan;99858.84;5031140;28;20057;-72
2022/06/08 06:34:13;;;;;;;7.88;4.28;;;;;;;22.78;nan;99871.78;5047030;28;20037;-72
2022/06/08 06:36:39;;;;;;;7.95;4.43;;;;;;;22.85;nan;99865.91;5035221;28;20099;-72
2022/06/08 06:39:04;;;;;;;8.93;4.20;;;;;;;23.01;nan;99920.72;5037734;28;20454;-71
2022/06/08 06:41:31;;;;;;;6.53;4.18;;;;;;;23.09;nan;99919.13;5031113;28;20049;-72
2022/06/08 06:43:56;;;;;;;5.97;3.80;;;;;;;23.11;nan;99914.22;5030867;28;21029;-71
2022/06/08 06:46:22;;;;;;;5.70;3.83;;;;;;;23.26;nan;99929.00;5035247;28;20048;-71
2022/06/08 06:48:47;;;;;;;7.03;3.80;;;;;;;23.24;nan;99910.53;5022376;28;20049;-73
2022/06/08 06:51:13;;;;;;;7.68;3.80;;;;;;;23.35;nan;99910.97;5019587;28;20422;-71
2022/06/08 06:53:38;;;;;;;4.03;3.63;;;;;;;23.38;nan;99898.78;5028591;28;20055;-70
2022/06/08 06:56:04;;;;;;;5.40;3.60;;;;;;;23.42;nan;99905.88;5042351;28;20376;-71
2022/06/08 06:58:29;;;;;;;8.32;4.40;;;;;;;23.25;nan;99871.00;5049841;28;20032;-71
2022/06/08 07:00:55;;;;;;;12.13;4.10;;;;;;;23.45;nan;99899.84;5035104;28;20033;-71
2022/06/08 07:03:21;;;;;;;8.20;3.60;;;;;;;23.56;nan;99901.06;5034807;28;20391;-71
2022/06/08 07:05:47;;;;;;;5.75;3.58;;;;;;;23.63;nan;99892.47;5035646;28;20068;-71
2022/06/08 07:08:13;;;;;;;7.38;4.20;;;;;;;23.68;nan;99883.44;5022365;28;20496;-71
2022/06/08 07:10:39;;;;;;;13.57;3.88;;;;;;;23.76;nan;99891.50;5039555;28;20073;-71
2022/06/08 07:13:05;;;;;;;8.18;3.80;;;;;;;23.93;nan;99890.59;5051174;28;20032;-69
2022/06/08 07:15:30;;;;;;;12.02;3.85;;;;;;;24.01;nan;99901.63;5032823;28;20069;-71
2022/06/08 07:17:56;;;;;;;8.07;3.35;;;;;;;24.08;nan;99889.22;5032413;28;20116;-71
2022/06/08 07:20:23;;;;;;;4.15;3.25;;;;;;;24.23;nan;99893.25;5048027;28;20033;-69
2022/06/08 07:22:50;;;;;;;4.45;3.20;;;;;;;24.29;nan;99894.59;5041279;28;20395;-71
2022/06/08 07:25:17;;;;;;;7.90;3.40;;;;;;;24.40;nan;99895.00;5018323;28;20043;-71
2022/06/08 07:27:43;;;;;;;8.45;3.22;;;;;;;24.36;nan;99894.84;5042202;28;20028;-71
2022/06/08 07:30:10;;;;;;;7.72;3.60;;;;;;;24.45;nan;99896.69;5023430;28;20047;-70
2022/06/08 07:32:36;;;;;;;5.47;3.38;;;;;;;24.50;nan;99891.16;5044887;28;20061;-71
2022/06/08 07:35:02;;;;;;;5.35;3.20;;;;;;;24.55;nan;99883.63;5033809;28;20564;-71
2022/06/08 07:37:28;;;;;;;6.25;2.88;;;;;;;24.65;nan;99890.50;5018008;28;20033;-71
2022/06/08 07:39:54;;;;;;;7.57;3.10;;;;;;;24.71;nan;99891.88;5033780;28;20041;-72
2022/06/08 07:42:21;;;;;;;5.38;2.88;;;;;;;24.82;nan;99894.94;5028041;28;20116;-71
2022/06/08 07:44:47;;;;;;;8.32;2.83;;;;;;;24.90;nan;99893.25;5039626;28;20697;-72
2022/06/08 07:47:14;;;;;;;4.93;3.00;;;;;;;24.95;nan;99901.13;5044577;28;20032;-72
2022/06/08 07:49:41;;;;;;;4.47;2.83;;;;;;;24.97;nan;99896.19;5041234;28;20053;-72
2022/06/08 07:52:13;;;;;;;7.30;3.00;;;;;;;24.92;nan;99893.72;5048160;28;20372;-72
2022/06/08 07:54:41;;;;;;;3.10;2.80;;;;;;;25.01;nan;99897.88;5035681;28;20037;-72
2022/06/08 07:57:08;;;;;;;7.40;2.95;;;;;;;25.08;nan;99912.72;5029962;28;20061;-72
2022/06/08 07:59:36;;;;;;;3.72;2.75;;;;;;;25.09;nan;99907.00;5046297;28;20107;-73
2022/06/08 08:02:04;;;;;;;6.03;2.72;;;;;;;25.17;nan;99916.94;5024395;28;20095;-72
2022/06/08 08:04:30;;;;;;;3.55;2.40;;;;;;;25.21;nan;99919.72;5025641;28;20029;-72
2022/06/08 08:06:55;;;;;;;3.00;2.70;;;;;;;25.19;nan;99914.69;5053142;28;20115;-72
2022/06/08 08:09:22;;;;;;;4.18;2.53;;;;;;;25.22;nan;99919.41;5025521;28;20518;-71
2022/06/08 08:11:52;;;;;;;4.47;2.60;;;;;;;25.25;nan;99913.34;5041144;28;20041;-72
2022/06/08 08:14:20;;;;;;;10.50;3.20;;;;;;;25.18;nan;99902.31;5023538;28;20029;-73
2022/06/08 08:16:46;;;;;;;6.95;3.10;;;;;;;25.24;nan;99911.00;5046062;28;20120;-73
2022/06/08 08:19:14;;;;;;;4.05;2.67;;;;;;;25.19;nan;99889.66;5048498;28;20124;-73
2022/06/08 08:21:40;;;;;;;3.88;2.67;;;;;;;25.27;nan;99902.22;5051171;28;20067;-73
2022/06/08 08:24:06;;;;;;;3.22;2.72;;;;;;;25.32;nan;99906.63;5047159;28;20048;-73
2022/06/08 08:26:32;;;;;;;9.00;2.80;;;;;;;25.37;nan;99904.47;5027042;28;20048;-71
2022/06/08 08:28:58;;;;;;;6.07;2.92;;;;;;;25.43;nan;99910.44;5040232;28;20033;-71
2022/06/08 08:31:25;;;;;;;4.75;2.90;;;;;;;25.42;nan;99903.47;5042828;28;20038;-69
2022/06/08 08:33:51;;;;;;;7.47;2.63;;;;;;;25.53;nan;99907.28;5027378;28;20140;-69
2022/06/08 08:36:18;;;;;;;7.60;2.50;;;;;;;25.53;nan;99904.59;5027902;28;20140;-69
2022/06/08 08:38:44;;;;;;;4.57;3.15;;;;;;;25.61;nan;99911.78;5028851;28;20065;-70
2022/06/08 08:42:20;;;;;;;3.65;2.47;;;;;;;25.64;nan;99908.41;5021429;28;20558;-70
2022/06/08 08:43:58;;;;;;;2.88;2.20;;;;;;;25.67;nan;99904.25;5053674;28;20037;-69
2022/06/08 08:46:43;;;;;;;6.43;2.55;;;;;;;25.75;nan;99916.81;5044331;28;20044;-69
2022/06/08 08:49:20;;;;;;;6.78;2.58;;;;;;;25.82;nan;99918.97;5031366;28;20066;-70
2022/06/08 08:51:54;;;;;;;3.38;2.40;;;;;;;25.87;nan;99910.66;5037706;28;20041;-70
2022/06/08 08:54:39;;;;;;;3.58;2.60;;;;;;;25.94;nan;99908.19;5049207;28;20047;-70
2022/06/08 08:57:11;;;;;;;5.63;2.55;;;;;;;26.06;nan;99915.47;5036445;28;20040;-69
2022/06/08 08:59:37;;;;;;;5.35;2.67;;;;;;;26.14;nan;99919.16;5031868;28;20033;-70
2022/06/08 09:02:03;;;;;;;5.60;2.45;;;;;;;26.13;nan;99917.59;5040199;28;20036;-70
2022/06/08 09:04:36;;;;;;;5.18;2.22;;;;;;;26.14;nan;99916.44;5033194;28;20466;-70
2022/06/08 09:07:13;;;;;;;7.00;2.42;;;;;;;26.19;nan;99919.69;5030756;28;20117;-69
2022/06/08 09:09:39;;;;;;;2.28;2.08;;;;;;;26.24;nan;99921.38;5039062;28;20037;-70
2022/06/08 09:12:05;;;;;;;3.30;2.15;;;;;;;26.25;nan;99901.34;5051261;28;20045;-71
2022/06/08 09:14:45;;;;;;;4.68;2.15;;;;;;;26.38;nan;99913.66;5040885;28;20478;-70
2022/06/08 09:17:36;;;;;;;3.47;1.80;;;;;;;26.32;nan;99898.84;5017279;28;20084;-70
2022/06/08 09:20:16;;;;;;;5.18;2.10;;;;;;;26.49;nan;99920.16;5025638;28;20513;-70
2022/06/08 09:22:52;;;;;;;3.80;1.92;;;;;;;26.54;nan;99924.56;5035597;28;20037;-70
2022/06/08 09:25:26;;;;;;;3.08;2.13;;;;;;;26.58;nan;99924.63;5034625;28;20025;-70
2022/06/08 09:27:55;;;;;;;3.17;2.10;;;;;;;26.64;nan;99920.56;5017843;28;20388;-70
2022/06/08 09:30:23;;;;;;;;;;;;;;;26.70;nan;99913.81;5037313;28;20083;-71
2022/06/08 09:32:59;;;;;;;2.10;1.90;;;;;;;26.74;nan;99903.88;5045965;28;19924;-70
2022/06/08 09:35:26;;;;;;;42.25;31.13;;;;;;;26.83;nan;99909.91;5044822;28;20298;-71
2022/06/08 09:37:54;;;;;;;36.85;28.70;;;;;;;26.83;nan;99907.19;5049104;28;20057;-69
2022/06/08 09:40:39;;;;;;;16.63;3.05;;;;;;;26.87;nan;99910.00;5046356;28;20041;-70
2022/06/08 09:43:29;;;;;;;7.78;2.15;;;;;;;26.92;nan;99902.41;5041414;28;20040;-70
2022/06/08 09:46:10;;;;;;;4.28;2.63;;;;;;;26.96;nan;99907.94;5040427;28;20072;-71
2022/06/08 09:51:36;;;;;;;8.48;2.17;;;;;;;27.05;nan;99892.31;5051579;28;20398;-71
2022/06/08 09:54:08;;;;;;;3.63;2.28;;;;;;;27.08;nan;99896.22;5024927;28;20037;-71
2022/06/08 09:56:48;;;;;;;4.57;2.20;;;;;;;27.13;nan;99890.59;5024652;28;20391;-68
2022/06/08 09:59:42;;;;;;;7.60;2.13;;;;;;;27.14;nan;99886.75;5044362;28;20391;-69
2022/06/08 10:02:35;;;;;;;4.65;2.20;;;;;;;27.10;nan;99889.34;5043555;28;20037;-68
2022/06/08 10:05:23;;;;;;;3.83;1.83;;;;;;;27.08;nan;99890.81;5017180;28;20043;-69
2022/06/08 10:08:03;;;;;;;5.57;2.50;;;;;;;27.11;nan;99890.16;5054383;28;20648;-69
2022/06/08 10:11:34;;;;;;;6.18;2.03;;;;;;;27.14;nan;99878.63;5022853;28;20449;-69
2022/06/08 10:13:58;;;;;;;7.40;2.17;;;;;;;27.18;nan;99868.69;5042839;28;20025;-69
2022/06/08 10:16:31;;;;;;;5.50;2.10;;;;;;;27.23;nan;99865.75;5042981;28;20048;-69
2022/06/08 10:19:05;;;;;;;5.38;1.92;;;;;;;27.22;nan;99858.75;5052540;28;20071;-69
2022/06/08 10:21:39;;;;;;;4.90;1.92;;;;;;;27.33;nan;99875.25;5054272;28;20479;-69
2022/06/08 10:24:21;;;;;;;7.55;2.30;;;;;;;27.29;nan;99869.75;5038446;28;20029;-68
2022/06/08 10:26:51;;;;;;;5.53;2.30;;;;;;;27.33;nan;99878.72;5041573;28;20056;-69
2022/06/08 10:29:46;;;;;;;3.45;2.05;;;;;;;27.28;nan;99870.88;5051883;28;20446;-67
2022/06/08 10:32:34;;;;;;;6.88;2.58;;;;;;;27.18;nan;99868.69;5038904;28;20036;-67
2022/06/08 10:35:12;;;;;;;7.47;2.10;;;;;;;27.12;nan;99867.38;5014088;28;20029;-68
2022/06/08 10:37:40;;;;;;;7.93;2.55;;;;;;;27.09;nan;99862.69;5050262;28;20055;-68
2022/06/08 10:40:29;;;;;;;3.10;2.10;;;;;;;27.08;nan;99871.91;5033205;28;20496;-70
2022/06/08 10:42:55;;;;;;;12.32;2.53;;;;;;;26.98;nan;99867.03;5046839;28;21597;-70
2022/06/08 10:45:20;;;;;;;10.95;2.22;;;;;;;26.98;nan;99870.50;5044565;28;20031;-70
2022/06/08 10:48:14;;;;;;;4.85;1.95;;;;;;;26.97;nan;99866.25;5044350;28;20469;-70
2022/06/08 10:50:48;;;;;;;7.00;2.20;;;;;;;26.95;nan;99857.69;5021179;28;20041;-68
2022/06/08 10:56:38;;;;;;;8.88;2.00;;;;;;;26.92;nan;99864.59;5048344;28;20041;-67
2022/06/08 10:59:03;;;;;;;5.75;2.10;;;;;;;26.81;nan;99866.22;5026359;28;20451;-69
2022/06/08 11:01:50;;;;;;;12.57;2.78;;;;;;;26.76;nan;99861.09;5025229;28;20121;-69
2022/06/08 11:04:33;;;;;;;7.22;2.15;;;;;;;26.72;nan;99857.50;5033281;28;20451;-69
2022/06/08 11:07:09;;;;;;;6.35;1.92;;;;;;;26.75;nan;99861.44;5016292;28;20041;-70
2022/06/08 11:09:34;;;;;;;6.80;2.33;;;;;;;26.78;nan;99856.13;5039522;28;20034;-70
2022/06/08 11:12:40;;;;;;;10.07;2.63;;;;;;;26.81;nan;99855.44;5042580;28;20137;-70
2022/06/08 11:15:33;;;;;;;3.90;2.05;;;;;;;26.88;nan;99863.72;5023135;28;20128;-70
2022/06/08 11:18:10;;;;;;;4.55;2.00;;;;;;;26.90;nan;99850.63;5030583;28;20048;-69
2022/06/08 11:20:43;;;;;;;4.03;2.00;;;;;;;26.75;nan;99832.53;5025395;28;20171;-69
2022/06/08 11:23:26;;;;;;;11.82;2.50;;;;;;;26.92;nan;99856.47;5043080;28;20037;-69
2022/06/08 11:26:07;;;;;;;11.38;2.15;;;;;;;26.99;nan;99863.22;5032328;28;20026;-69
2022/06/08 11:28:39;;;;;;;3.70;2.10;;;;;;;26.97;nan;99841.16;5034025;28;20040;-70
2022/06/08 11:31:11;;;;;;;5.35;2.42;;;;;;;27.04;nan;99852.13;5035139;28;20557;-70
2022/06/08 11:34:16;;;;;;;8.27;2.20;;;;;;;27.07;nan;99857.63;5036248;28;20033;-70
2022/06/08 11:36:56;;;;;;;4.40;2.20;;;;;;;27.04;nan;99846.72;5039406;28;21060;-71
2022/06/08 11:39:30;;;;;;;9.32;2.20;;;;;;;27.01;nan;99847.41;5018048;28;20399;-71
2022/06/08 11:42:17;;;;;;;7.00;2.15;;;;;;;27.10;nan;99858.84;5029866;28;20064;-71
2022/06/08 11:45:12;;;;;;;5.53;2.15;;;;;;;26.97;nan;99835.75;5037155;28;20033;-70
2022/06/08 11:48:13;;;;;;;3.75;1.90;;;;;;;27.13;nan;99855.44;5036532;28;20040;-69
2022/06/08 11:50:41;;;;;;;4.82;1.90;;;;;;;27.16;nan;99850.13;5052587;28;20059;-69
2022/06/08 11:53:14;;;;;;;4.38;2.25;;;;;;;27.05;nan;99840.19;5046126;28;20438;-67
2022/06/08 11:56:05;;;;;;;13.32;3.33;;;;;;;27.16;nan;99850.13;5049031;28;20469;-68
2022/06/08 11:58:33;;;;;;;2.95;2.20;;;;;;;27.08;nan;99828.66;5042430;28;20111;-68
2022/06/08 12:01:02;;;;;;;6.32;1.90;;;;;;;27.13;nan;99834.59;5025708;28;20053;-68
2022/06/08 12:03:38;;;;;;;4.53;2.70;;;;;;;27.27;nan;99838.78;5046290;28;20033;-67
2022/06/08 12:06:14;;;;;;;10.63;2.78;;;;;;;27.30;nan;99844.28;5043478;28;20040;-69
2022/06/08 12:08:40;;;;;;;6.05;2.42;;;;;;;27.32;nan;99841.22;5029390;28;20056;-69
2022/06/08 12:11:09;;;;;;;5.47;2.50;;;;;;;27.29;nan;99836.53;5051677;28;20049;-69
2022/06/08 12:13:35;;;;;;;6.03;2.20;;;;;;;27.36;nan;99836.69;5028685;28;20108;-69
2022/06/08 12:16:21;;;;;;;6.50;2.30;;;;;;;27.43;nan;99844.19;5040251;28;20124;-69
2022/06/08 12:18:54;;;;;;;3.47;2.20;;;;;;;27.38;nan;99836.34;5034541;28;20029;-70
2022/06/08 12:21:34;;;;;;;4.65;2.20;;;;;;;27.19;nan;99829.72;5049424;28;20029;-69
2022/06/08 12:24:11;;;;;;;6.35;2.33;;;;;;;27.11;nan;99842.28;5035209;28;20024;-70
2022/06/08 12:26:40;;;;;;;2.50;1.90;;;;;;;26.99;nan;99833.50;5026466;28;20037;-70
2022/06/08 12:29:25;;;;;;;6.88;2.20;;;;;;;26.83;nan;99836.97;5041844;28;20096;-68
2022/06/08 12:32:20;;;;;;;3.72;1.95;;;;;;;26.73;nan;99827.44;5014770;28;20037;-69
2022/06/08 12:34:45;;;;;;;3.97;2.25;;;;;;;26.68;nan;99835.03;5033565;28;20046;-69